Time,TemperatureF,DewpointF,PressureIn,WindDirection,WindDirectionDegrees,WindSpeedMPH,WindSpeedGustMPH,Humidity,HourlyPrecipIn,Conditions,Clouds,dailyrainin,SoftwareType,DateUTC
2013-04-24 00:10:00,28.8,20.0,29.99,WSW,257,1.0,-999.0,70,-99.99,,,0.00,weatherlink.com 1.10,2013-04-24 05:10:00,
2013-04-24 00:25:00,28.5,20.0,29.99,WSW,258,0.0,-999.0,70,-99.99,,,0.00,weatherlink.com 1.10,2013-04-24 05:25:00,
2013-04-24 00:40:00,28.4,20.0,29.99,WSW,258,0.0,-999.0,71,-99.99,,,0.00,weatherlink.com 1.10,2013-04-24 05:40:00,
2013-04-24 00:55:00,28.1,20.0,29.99,WSW,258,0.0,-999.0,71,-99.99,,,0.00,weatherlink.com 1.10,2013-04-24 05:55:00,
2013-04-24 01:10:00,28.1,20.0,29.99,WSW,258,0.0,-999.0,71,-99.99,,,0.00,weatherlink.com 1.10,2013-04-24 06:10:00,
2013-04-24 01:25:00,28.4,20.0,29.99,West,265,0.0,-999.0,71,-99.99,,,0.00,weatherlink.com 1.10,2013-04-24 06:25:00,
2013-04-24 01:40:00,28.5,20.0,29.98,West,265,0.0,-999.0,70,-99.99,,,0.00,weatherlink.com 1.10,2013-04-24 06:40:00,
2013-04-24 01:56:00,28.5,20.0,29.98,West,263,0.0,-999.0,70,-99.99,,,0.00,weatherlink.com 1.10,2013-04-24 06:56:00,
2013-04-24 02:10:00,28.5,20.0,29.98,West,263,0.0,-999.0,70,-99.99,,,0.00,weatherlink.com 1.10,2013-04-24 07:10:00,
2013-04-24 02:25:00,28.5,20.0,29.97,West,268,0.0,-999.0,70,-99.99,,,0.00,weatherlink.com 1.10,2013-04-24 07:25:00,
2013-04-24 02:40:00,28.4,20.0,29.98,WSW,248,4.0,-999.0,71,-99.99,,,0.00,weatherlink.com 1.10,2013-04-24 07:40:00,
2013-04-24 02:55:00,28.1,20.0,29.98,West,259,1.0,-999.0,71,-99.99,,,0.00,weatherlink.com 1.10,2013-04-24 07:55:00,
2013-04-24 03:10:00,27.9,20.0,29.98,West,267,0.0,-999.0,72,-99.99,,,0.00,weatherlink.com 1.10,2013-04-24 08:10:00,
2013-04-24 03:25:00,27.8,20.0,29.99,West,267,0.0,-999.0,72,-99.99,,,0.00,weatherlink.com 1.10,2013-04-24 08:25:00,
2013-04-24 03:40:00,27.8,20.0,29.99,West,267,0.0,-999.0,72,-99.99,,,0.00,weatherlink.com 1.10,2013-04-24 08:40:00,
2013-04-24 03:55:00,27.6,20.0,29.99,West,281,0.0,-999.0,72,-99.99,,,0.00,weatherlink.com 1.10,2013-04-24 08:55:00,
2013-04-24 04:10:00,27.3,20.0,29.99,West,281,0.0,-999.0,73,-99.99,,,0.00,weatherlink.com 1.10,2013-04-24 09:10:00,
2013-04-24 04:25:00,27.2,19.0,29.98,West,281,0.0,-999.0,72,-99.99,,,0.00,weatherlink.com 1.10,2013-04-24 09:25:00,
2013-04-24 04:40:00,26.7,19.0,29.99,West,281,0.0,-999.0,73,-99.99,,,0.00,weatherlink.com 1.10,2013-04-24 09:40:00,
2013-04-24 04:55:00,26.6,19.0,29.99,West,281,0.0,-999.0,74,-99.99,,,0.00,weatherlink.com 1.10,2013-04-24 09:55:00,
2013-04-24 05:11:00,26.3,19.0,29.98,West,281,0.0,-999.0,74,-99.99,,,0.00,weatherlink.com 1.10,2013-04-24 10:11:00,
2013-04-24 05:26:00,25.8,19.0,29.98,West,281,0.0,-999.0,75,-99.99,,,0.00,weatherlink.com 1.10,2013-04-24 10:26:00,
2013-04-24 05:41:00,25.4,19.0,29.98,West,281,0.0,-999.0,76,-99.99,,,0.00,weatherlink.com 1.10,2013-04-24 10:41:00,
2013-04-24 05:56:00,25.3,19.0,29.99,West,281,0.0,-999.0,77,-99.99,,,0.00,weatherlink.com 1.10,2013-04-24 10:56:00,
2013-04-24 06:11:00,25.4,19.0,29.99,West,281,0.0,-999.0,77,-99.99,,,0.00,weatherlink.com 1.10,2013-04-24 11:11:00,
2013-04-24 06:26:00,25.7,19.0,29.99,West,259,0.0,-999.0,77,-99.99,,,0.00,weatherlink.com 1.10,2013-04-24 11:26:00,
2013-04-24 06:41:00,25.8,20.0,29.99,WSW,239,0.0,-999.0,77,-99.99,,,0.00,weatherlink.com 1.10,2013-04-24 11:41:00,
2013-04-24 06:56:00,26.1,20.0,29.99,WSW,242,1.0,-999.0,77,-99.99,,,0.00,weatherlink.com 1.10,2013-04-24 11:56:00,
2013-04-24 07:11:00,26.6,20.0,29.99,WSW,249,1.0,-999.0,76,-99.99,,,0.00,weatherlink.com 1.10,2013-04-24 12:11:00,
2013-04-24 07:26:00,27.2,20.0,29.99,West,276,0.0,-999.0,75,-99.99,,,0.00,weatherlink.com 1.10,2013-04-24 12:26:00,
2013-04-24 07:41:00,27.9,20.0,29.99,NW,304,0.0,-999.0,73,-99.99,,,0.00,weatherlink.com 1.10,2013-04-24 12:41:00,
2013-04-24 07:56:00,28.8,21.0,29.99,West,270,2.0,-999.0,73,-99.99,,,0.00,weatherlink.com 1.10,2013-04-24 12:56:00,
2013-04-24 08:11:00,29.7,22.0,29.99,SW,236,4.0,-999.0,72,-99.99,,,0.00,weatherlink.com 1.10,2013-04-24 13:11:00,
2013-04-24 08:27:00,30.6,22.0,29.99,West,270,2.0,-999.0,70,-99.99,,,0.00,weatherlink.com 1.10,2013-04-24 13:27:00,
2013-04-24 08:42:00,31.3,22.0,29.99,West,275,0.0,-999.0,69,-99.99,,,0.00,weatherlink.com 1.10,2013-04-24 13:42:00,
2013-04-24 08:57:00,32.1,23.0,29.99,WNW,294,2.0,-999.0,69,-99.99,,,0.00,weatherlink.com 1.10,2013-04-24 13:57:00,
2013-04-24 09:11:00,32.9,23.0,29.99,WSW,257,0.0,-999.0,68,-99.99,,,0.00,weatherlink.com 1.10,2013-04-24 14:11:00,
2013-04-24 09:26:00,34.0,23.0,29.99,SSW,211,2.0,-999.0,64,-99.99,,,0.00,weatherlink.com 1.10,2013-04-24 14:26:00,
2013-04-24 09:41:00,35.2,23.0,29.99,WNW,295,1.0,-999.0,61,-99.99,,,0.00,weatherlink.com 1.10,2013-04-24 14:41:00,
2013-04-24 09:56:00,36.8,23.0,29.98,SW,217,1.0,-999.0,58,-99.99,,,0.00,weatherlink.com 1.10,2013-04-24 14:56:00,
2013-04-24 10:11:00,38.2,23.0,29.98,NNW,334,1.0,-999.0,55,-99.99,,,0.00,weatherlink.com 1.10,2013-04-24 15:11:00,
2013-04-24 10:26:00,39.8,23.0,29.97,SSE,163,0.0,-999.0,52,-99.99,,,0.00,weatherlink.com 1.10,2013-04-24 15:26:00,
2013-04-24 10:42:00,41.3,23.0,29.97,South,185,4.0,-999.0,49,-99.99,,,0.00,weatherlink.com 1.10,2013-04-24 15:42:00,
2013-04-24 10:57:00,42.3,24.0,29.97,WSW,257,3.0,-999.0,49,-99.99,,,0.00,weatherlink.com 1.10,2013-04-24 15:57:00,
2013-04-24 11:12:00,43.5,25.0,29.96,South,187,3.0,-999.0,48,-99.99,,,0.00,weatherlink.com 1.10,2013-04-24 16:12:00,
2013-04-24 11:27:00,44.1,25.0,29.96,SSE,167,6.0,-999.0,47,-99.99,,,0.00,weatherlink.com 1.10,2013-04-24 16:27:00,
2013-04-24 11:42:00,45.2,26.0,29.95,SW,230,1.0,-999.0,47,-99.99,,,0.00,weatherlink.com 1.10,2013-04-24 16:42:00,
2013-04-24 11:57:00,46.4,26.0,29.95,SW,218,1.0,-999.0,45,-99.99,,,0.00,weatherlink.com 1.10,2013-04-24 16:57:00,
2013-04-24 12:12:00,47.0,26.0,29.94,SW,221,3.0,-999.0,45,-99.99,,,0.00,weatherlink.com 1.10,2013-04-24 17:12:00,
2013-04-24 12:27:00,48.0,28.0,29.93,SW,215,3.0,-999.0,46,-99.99,,,0.00,weatherlink.com 1.10,2013-04-24 17:27:00,
2013-04-24 12:43:00,48.9,28.0,29.93,WNW,289,3.0,-999.0,44,-99.99,,,0.00,weatherlink.com 1.10,2013-04-24 17:43:00,
2013-04-24 12:58:00,50.1,28.0,29.92,WSW,241,5.0,-999.0,43,-99.99,,,0.00,weatherlink.com 1.10,2013-04-24 17:58:00,
2013-04-24 13:12:00,50.7,26.0,29.91,SW,230,10.0,-999.0,38,-99.99,,,0.00,weatherlink.com 1.10,2013-04-24 18:12:00,
2013-04-24 13:27:00,51.1,27.0,29.91,WNW,299,5.0,-999.0,40,-99.99,,,0.00,weatherlink.com 1.10,2013-04-24 18:27:00,
2013-04-24 13:42:00,50.1,26.0,29.90,WSW,257,3.0,-999.0,39,-99.99,,,0.00,weatherlink.com 1.10,2013-04-24 18:42:00,
2013-04-24 13:57:00,51.1,27.0,29.90,SW,230,5.0,-999.0,39,-99.99,,,0.00,weatherlink.com 1.10,2013-04-24 18:57:00,
2013-04-24 14:13:00,51.6,26.0,29.90,NW,315,5.0,-999.0,37,-99.99,,,0.00,weatherlink.com 1.10,2013-04-24 19:13:00,
2013-04-24 14:28:00,50.7,24.0,29.90,WNW,290,5.0,-999.0,36,-99.99,,,0.00,weatherlink.com 1.10,2013-04-24 19:28:00,
2013-04-24 14:43:00,50.8,25.0,29.90,SW,218,5.0,-999.0,36,-99.99,,,0.00,weatherlink.com 1.10,2013-04-24 19:43:00,
2013-04-24 14:58:00,51.4,24.0,29.90,WNW,282,5.0,-999.0,34,-99.99,,,0.00,weatherlink.com 1.10,2013-04-24 19:58:00,
2013-04-24 15:12:00,51.4,23.0,29.90,West,263,6.0,-999.0,33,-99.99,,,0.00,weatherlink.com 1.10,2013-04-24 20:12:00,
2013-04-24 15:27:00,52.2,24.0,29.90,West,268,4.0,-999.0,33,-99.99,,,0.00,weatherlink.com 1.10,2013-04-24 20:27:00,
2013-04-24 15:42:00,52.0,25.0,29.89,SSW,211,5.0,-999.0,35,-99.99,,,0.00,weatherlink.com 1.10,2013-04-24 20:42:00,
2013-04-24 15:58:00,51.9,23.0,29.88,WNW,293,2.0,-999.0,33,-99.99,,,0.00,weatherlink.com 1.10,2013-04-24 20:58:00,
2013-04-24 16:13:00,51.0,23.0,29.88,WNW,298,7.0,-999.0,34,-99.99,,,0.00,weatherlink.com 1.10,2013-04-24 21:13:00,
2013-04-24 16:28:00,50.5,24.0,29.88,WSW,238,3.0,-999.0,36,-99.99,,,0.00,weatherlink.com 1.10,2013-04-24 21:28:00,
2013-04-24 16:58:00,50.2,25.0,29.88,SW,221,5.0,-999.0,37,-99.99,,,0.00,weatherlink.com 1.10,2013-04-24 21:58:00,
2013-04-24 17:13:00,50.4,25.0,29.87,WSW,248,12.0,-999.0,37,-99.99,,,0.00,weatherlink.com 1.10,2013-04-24 22:13:00,
2013-04-24 17:28:00,49.8,26.0,29.87,SW,233,2.0,-999.0,39,-99.99,,,0.00,weatherlink.com 1.10,2013-04-24 22:28:00,
2013-04-24 17:43:00,49.5,25.0,29.87,NNW,336,2.0,-999.0,39,-99.99,,,0.00,weatherlink.com 1.10,2013-04-24 22:43:00,
2013-04-24 17:58:00,49.2,26.0,29.87,SW,232,0.0,-999.0,41,-99.99,,,0.00,weatherlink.com 1.10,2013-04-24 22:58:00,
2013-04-24 18:13:00,49.1,26.0,29.86,West,269,5.0,-999.0,40,-99.99,,,0.00,weatherlink.com 1.10,2013-04-24 23:13:00,
2013-04-24 18:28:00,49.4,25.0,29.85,SW,222,1.0,-999.0,39,-99.99,,,0.00,weatherlink.com 1.10,2013-04-24 23:28:00,
2013-04-24 18:43:00,48.9,25.0,29.85,WNW,283,6.0,-999.0,39,-99.99,,,0.00,weatherlink.com 1.10,2013-04-24 23:43:00,
2013-04-24 18:58:00,48.2,25.0,29.85,WNW,290,4.0,-999.0,40,-99.99,,,0.00,weatherlink.com 1.10,2013-04-24 23:58:00,
2013-04-24 19:13:00,47.7,25.0,29.84,West,281,0.0,-999.0,41,-99.99,,,0.00,weatherlink.com 1.10,2013-04-25 00:13:00,
2013-04-24 19:28:00,47.4,25.0,29.84,WNW,282,1.0,-999.0,42,-99.99,,,0.00,weatherlink.com 1.10,2013-04-25 00:28:00,
2013-04-24 19:43:00,47.0,25.0,29.83,WSW,250,0.0,-999.0,43,-99.99,,,0.00,weatherlink.com 1.10,2013-04-25 00:43:00,
2013-04-24 19:58:00,46.5,26.0,29.82,West,263,1.0,-999.0,45,-99.99,,,0.00,weatherlink.com 1.10,2013-04-25 00:58:00,
2013-04-24 20:13:00,46.0,28.0,29.83,NE,46,2.0,-999.0,50,-99.99,,,0.00,weatherlink.com 1.10,2013-04-25 01:13:00,
2013-04-24 20:28:00,44.9,30.0,29.83,West,281,1.0,-999.0,57,-99.99,,,0.00,weatherlink.com 1.10,2013-04-25 01:28:00,
2013-04-24 20:43:00,44.1,31.0,29.85,West,259,1.0,-999.0,61,-99.99,,,0.00,weatherlink.com 1.10,2013-04-25 01:43:00,
2013-04-24 20:58:00,42.6,32.0,29.85,NE,34,0.0,-999.0,67,-99.99,,,0.00,weatherlink.com 1.10,2013-04-25 01:58:00,
2013-04-24 21:14:00,40.5,33.0,29.87,NW,311,1.0,-999.0,75,-99.99,,,0.01,weatherlink.com 1.10,2013-04-25 02:14:00,
2013-04-24 21:29:00,39.2,34.0,29.87,ENE,67,1.0,-999.0,80,-99.99,,,0.02,weatherlink.com 1.10,2013-04-25 02:29:00,
2013-04-24 21:44:00,37.9,33.0,29.88,WNW,301,0.0,-999.0,82,-99.99,,,0.04,weatherlink.com 1.10,2013-04-25 02:44:00,
2013-04-24 21:59:00,37.2,33.0,29.88,WNW,301,0.0,-999.0,84,-99.99,,,0.05,weatherlink.com 1.10,2013-04-25 02:59:00,
2013-04-24 22:29:00,36.5,33.0,29.88,NW,309,0.0,-999.0,88,-99.99,,,0.05,weatherlink.com 1.10,2013-04-25 03:29:00,
2013-04-24 22:44:00,36.3,33.0,29.88,NW,309,0.0,-999.0,89,-99.99,,,0.05,weatherlink.com 1.10,2013-04-25 03:44:00,
2013-04-24 22:59:00,36.2,33.0,29.89,NW,309,0.0,-999.0,89,-99.99,,,0.05,weatherlink.com 1.10,2013-04-25 03:59:00,
2013-04-24 23:14:00,35.9,33.0,29.89,NW,308,0.0,-999.0,90,-99.99,,,0.00,weatherlink.com 1.10,2013-04-25 04:14:00,
2013-04-24 23:29:00,35.8,34.0,29.89,NW,308,0.0,-999.0,91,-99.99,,,0.00,weatherlink.com 1.10,2013-04-25 04:29:00,
2013-04-24 23:44:00,35.6,33.0,29.89,WNW,284,0.0,-999.0,91,-99.99,,,0.00,weatherlink.com 1.10,2013-04-25 04:44:00,
2013-04-24 23:59:00,35.5,33.0,29.89,WNW,284,0.0,-999.0,92,-99.99,,,0.00,weatherlink.com 1.10,2013-04-25 04:59:00,